sensor_id;sensor_type;location;lat;lon;timestamp;P1;durP1;ratioP1;P2;durP2;ratioP2
8478;SDS011;4276;49.354;6.804;2024-02-23T00:02:06;3.95;;;1.80;;
8478;SDS011;4276;49.354;6.804;2024-02-23T00:04:33;1.95;;;1.40;;
8478;SDS011;4276;49.354;6.804;2024-02-23T00:06:59;3.65;;;2.28;;
8478;SDS011;4276;49.354;6.804;2024-02-23T00:09:26;4.88;;;3.63;;
8478;SDS011;4276;49.354;6.804;2024-02-23T00:11:53;5.53;;;4.00;;
8478;SDS011;4276;49.354;6.804;2024-02-23T00:14:20;3.90;;;2.08;;
8478;SDS011;4276;49.354;6.804;2024-02-23T00:16:47;4.18;;;3.88;;
8478;SDS011;4276;49.354;6.804;2024-02-23T00:19:13;2.00;;;1.60;;
8478;SDS011;4276;49.354;6.804;2024-02-23T00:21:41;1.77;;;1.35;;
8478;SDS011;4276;49.354;6.804;2024-02-23T00:24:08;2.65;;;1.85;;
8478;SDS011;4276;49.354;6.804;2024-02-23T00:26:35;2.40;;;1.40;;
8478;SDS011;4276;49.354;6.804;2024-02-23T00:29:02;1.92;;;1.30;;
8478;SDS011;4276;49.354;6.804;2024-02-23T00:31:29;2.58;;;1.40;;
8478;SDS011;4276;49.354;6.804;2024-02-23T00:33:55;4.25;;;1.75;;
8478;SDS011;4276;49.354;6.804;2024-02-23T00:36:22;3.00;;;1.45;;
8478;SDS011;4276;49.354;6.804;2024-02-23T00:38:49;1.52;;;1.20;;
8478;SDS011;4276;49.354;6.804;2024-02-23T00:41:15;3.35;;;1.63;;
8478;SDS011;4276;49.354;6.804;2024-02-23T00:43:42;3.08;;;1.65;;
8478;SDS011;4276;49.354;6.804;2024-02-23T00:46:09;1.88;;;1.60;;
8478;SDS011;4276;49.354;6.804;2024-02-23T00:48:35;1.85;;;1.42;;
8478;SDS011;4276;49.354;6.804;2024-02-23T00:51:02;1.33;;;1.10;;
8478;SDS011;4276;49.354;6.804;2024-02-23T00:53:31;1.95;;;1.60;;
8478;SDS011;4276;49.354;6.804;2024-02-23T00:55:58;1.48;;;1.00;;
8478;SDS011;4276;49.354;6.804;2024-02-23T00:58:25;2.97;;;1.40;;
8478;SDS011;4276;49.354;6.804;2024-02-23T01:00:51;2.00;;;1.38;;
8478;SDS011;4276;49.354;6.804;2024-02-23T01:03:18;1.63;;;1.50;;
8478;SDS011;4276;49.354;6.804;2024-02-23T01:05:44;2.25;;;1.40;;
8478;SDS011;4276;49.354;6.804;2024-02-23T01:08:11;3.40;;;1.70;;
8478;SDS011;4276;49.354;6.804;2024-02-23T01:10:38;2.50;;;1.80;;
8478;SDS011;4276;49.354;6.804;2024-02-23T01:13:04;3.58;;;1.52;;
8478;SDS011;4276;49.354;6.804;2024-02-23T01:15:31;2.22;;;1.20;;
8478;SDS011;4276;49.354;6.804;2024-02-23T01:17:58;2.50;;;1.65;;
8478;SDS011;4276;49.354;6.804;2024-02-23T01:20:24;3.03;;;1.73;;
8478;SDS011;4276;49.354;6.804;2024-02-23T01:22:51;2.15;;;1.20;;
8478;SDS011;4276;49.354;6.804;2024-02-23T01:25:18;2.65;;;1.30;;
8478;SDS011;4276;49.354;6.804;2024-02-23T01:27:45;3.00;;;1.65;;
8478;SDS011;4276;49.354;6.804;2024-02-23T01:30:12;4.35;;;1.70;;
8478;SDS011;4276;49.354;6.804;2024-02-23T01:32:38;1.77;;;1.45;;
8478;SDS011;4276;49.354;6.804;2024-02-23T01:35:06;1.30;;;1.17;;
8478;SDS011;4276;49.354;6.804;2024-02-23T01:37:33;2.55;;;1.30;;
8478;SDS011;4276;49.354;6.804;2024-02-23T01:40:00;1.40;;;1.20;;
8478;SDS011;4276;49.354;6.804;2024-02-23T01:42:27;3.30;;;1.55;;
8478;SDS011;4276;49.354;6.804;2024-02-23T01:44:53;2.65;;;1.10;;
8478;SDS011;4276;49.354;6.804;2024-02-23T01:47:23;1.70;;;1.10;;
8478;SDS011;4276;49.354;6.804;2024-02-23T01:49:50;1.85;;;1.25;;
8478;SDS011;4276;49.354;6.804;2024-02-23T01:52:21;1.88;;;1.15;;
8478;SDS011;4276;49.354;6.804;2024-02-23T01:54:47;1.77;;;1.20;;
8478;SDS011;4276;49.354;6.804;2024-02-23T01:57:14;1.02;;;1.00;;
8478;SDS011;4276;49.354;6.804;2024-02-23T02:00:01;1.77;;;1.23;;
8478;SDS011;4276;49.354;6.804;2024-02-23T02:02:28;1.90;;;1.40;;
8478;SDS011;4276;49.354;6.804;2024-02-23T02:04:55;1.50;;;1.40;;
8478;SDS011;4276;49.354;6.804;2024-02-23T02:07:23;2.05;;;1.25;;
8478;SDS011;4276;49.354;6.804;2024-02-23T02:09:51;2.45;;;1.42;;
8478;SDS011;4276;49.354;6.804;2024-02-23T02:12:27;2.38;;;1.52;;
8478;SDS011;4276;49.354;6.804;2024-02-23T02:14:54;1.50;;;1.40;;
8478;SDS011;4276;49.354;6.804;2024-02-23T02:17:22;2.58;;;1.40;;
8478;SDS011;4276;49.354;6.804;2024-02-23T02:19:48;2.55;;;1.48;;
8478;SDS011;4276;49.354;6.804;2024-02-23T02:22:15;1.63;;;1.52;;
8478;SDS011;4276;49.354;6.804;2024-02-23T02:24:41;2.70;;;1.67;;
8478;SDS011;4276;49.354;6.804;2024-02-23T02:27:10;2.22;;;1.50;;
8478;SDS011;4276;49.354;6.804;2024-02-23T02:29:36;1.80;;;1.50;;
8478;SDS011;4276;49.354;6.804;2024-02-23T02:32:03;2.95;;;1.35;;
8478;SDS011;4276;49.354;6.804;2024-02-23T02:34:30;2.60;;;1.50;;
8478;SDS011;4276;49.354;6.804;2024-02-23T02:36:57;3.42;;;1.40;;
8478;SDS011;4276;49.354;6.804;2024-02-23T02:39:23;3.58;;;1.50;;
8478;SDS011;4276;49.354;6.804;2024-02-23T02:41:50;2.25;;;1.30;;
8478;SDS011;4276;49.354;6.804;2024-02-23T02:44:17;1.75;;;1.42;;
8478;SDS011;4276;49.354;6.804;2024-02-23T02:46:43;4.60;;;1.52;;
8478;SDS011;4276;49.354;6.804;2024-02-23T02:49:10;1.77;;;1.30;;
8478;SDS011;4276;49.354;6.804;2024-02-23T02:51:37;2.50;;;1.50;;
8478;SDS011;4276;49.354;6.804;2024-02-23T02:54:03;4.50;;;1.50;;
8478;SDS011;4276;49.354;6.804;2024-02-23T02:56:30;1.90;;;1.35;;
8478;SDS011;4276;49.354;6.804;2024-02-23T02:58:57;3.58;;;1.65;;
8478;SDS011;4276;49.354;6.804;2024-02-23T03:01:23;2.05;;;1.45;;
8478;SDS011;4276;49.354;6.804;2024-02-23T03:03:50;2.58;;;1.95;;
8478;SDS011;4276;49.354;6.804;2024-02-23T03:06:17;1.88;;;1.77;;
8478;SDS011;4276;49.354;6.804;2024-02-23T03:08:43;2.53;;;1.60;;
8478;SDS011;4276;49.354;6.804;2024-02-23T03:11:10;1.90;;;1.70;;
8478;SDS011;4276;49.354;6.804;2024-02-23T03:13:36;2.13;;;1.35;;
8478;SDS011;4276;49.354;6.804;2024-02-23T03:16:03;2.15;;;1.58;;
8478;SDS011;4276;49.354;6.804;2024-02-23T03:18:29;1.88;;;1.40;;
8478;SDS011;4276;49.354;6.804;2024-02-23T03:20:57;2.40;;;1.55;;
8478;SDS011;4276;49.354;6.804;2024-02-23T03:23:24;2.42;;;1.38;;
8478;SDS011;4276;49.354;6.804;2024-02-23T03:25:51;1.60;;;1.50;;
8478;SDS011;4276;49.354;6.804;2024-02-23T03:28:17;2.75;;;1.60;;
8478;SDS011;4276;49.354;6.804;2024-02-23T03:30:44;3.28;;;1.60;;
8478;SDS011;4276;49.354;6.804;2024-02-23T03:33:10;2.97;;;1.30;;
8478;SDS011;4276;49.354;6.804;2024-02-23T03:35:37;2.33;;;1.50;;
8478;SDS011;4276;49.354;6.804;2024-02-23T03:38:03;2.10;;;1.65;;
8478;SDS011;4276;49.354;6.804;2024-02-23T03:40:30;2.63;;;1.92;;
8478;SDS011;4276;49.354;6.804;2024-02-23T03:42:56;1.65;;;1.45;;
8478;SDS011;4276;49.354;6.804;2024-02-23T03:45:23;3.80;;;1.85;;
8478;SDS011;4276;49.354;6.804;2024-02-23T03:47:49;2.65;;;1.67;;
8478;SDS011;4276;49.354;6.804;2024-02-23T03:50:16;2.97;;;1.90;;
8478;SDS011;4276;49.354;6.804;2024-02-23T03:52:42;3.40;;;2.17;;
8478;SDS011;4276;49.354;6.804;2024-02-23T03:55:09;2.83;;;1.67;;
8478;SDS011;4276;49.354;6.804;2024-02-23T03:57:36;1.83;;;1.73;;
8478;SDS011;4276;49.354;6.804;2024-02-23T04:00:03;2.42;;;1.52;;
8478;SDS011;4276;49.354;6.804;2024-02-23T04:02:30;3.25;;;1.50;;
8478;SDS011;4276;49.354;6.804;2024-02-23T04:04:56;3.85;;;1.58;;
8478;SDS011;4276;49.354;6.804;2024-02-23T04:07:23;3.33;;;1.73;;
8478;SDS011;4276;49.354;6.804;2024-02-23T04:09:50;5.43;;;1.85;;
8478;SDS011;4276;49.354;6.804;2024-02-23T04:12:18;2.40;;;1.58;;
8478;SDS011;4276;49.354;6.804;2024-02-23T04:14:46;3.17;;;1.85;;
8478;SDS011;4276;49.354;6.804;2024-02-23T04:17:12;3.25;;;1.58;;
8478;SDS011;4276;49.354;6.804;2024-02-23T04:19:42;2.22;;;2.00;;
8478;SDS011;4276;49.354;6.804;2024-02-23T04:22:09;2.35;;;1.83;;
8478;SDS011;4276;49.354;6.804;2024-02-23T04:24:37;4.70;;;1.90;;
8478;SDS011;4276;49.354;6.804;2024-02-23T04:27:05;4.07;;;1.83;;
8478;SDS011;4276;49.354;6.804;2024-02-23T04:29:32;4.07;;;1.83;;
8478;SDS011;4276;49.354;6.804;2024-02-23T04:32:01;4.60;;;2.08;;
8478;SDS011;4276;49.354;6.804;2024-02-23T04:34:28;2.20;;;1.60;;
8478;SDS011;4276;49.354;6.804;2024-02-23T04:36:55;2.63;;;1.80;;
8478;SDS011;4276;49.354;6.804;2024-02-23T04:39:21;4.68;;;1.67;;
8478;SDS011;4276;49.354;6.804;2024-02-23T04:41:48;3.10;;;2.17;;
8478;SDS011;4276;49.354;6.804;2024-02-23T04:44:15;3.70;;;2.05;;
8478;SDS011;4276;49.354;6.804;2024-02-23T04:46:42;4.40;;;2.05;;
8478;SDS011;4276;49.354;6.804;2024-02-23T04:49:08;6.22;;;3.28;;
8478;SDS011;4276;49.354;6.804;2024-02-23T04:51:38;9.50;;;5.57;;
8478;SDS011;4276;49.354;6.804;2024-02-23T04:54:04;9.43;;;4.65;;
8478;SDS011;4276;49.354;6.804;2024-02-23T04:56:31;5.15;;;3.05;;
8478;SDS011;4276;49.354;6.804;2024-02-23T04:58:57;3.63;;;2.42;;
8478;SDS011;4276;49.354;6.804;2024-02-23T05:01:24;3.67;;;1.75;;
8478;SDS011;4276;49.354;6.804;2024-02-23T05:03:51;2.45;;;1.92;;
8478;SDS011;4276;49.354;6.804;2024-02-23T05:06:18;4.72;;;1.67;;
8478;SDS011;4276;49.354;6.804;2024-02-23T05:08:44;4.78;;;2.67;;
8478;SDS011;4276;49.354;6.804;2024-02-23T05:11:13;6.10;;;2.83;;
8478;SDS011;4276;49.354;6.804;2024-02-23T05:13:41;4.55;;;2.80;;
8478;SDS011;4276;49.354;6.804;2024-02-23T05:16:09;4.68;;;2.40;;
8478;SDS011;4276;49.354;6.804;2024-02-23T05:18:35;6.43;;;2.28;;
8478;SDS011;4276;49.354;6.804;2024-02-23T05:21:02;3.22;;;2.20;;
8478;SDS011;4276;49.354;6.804;2024-02-23T05:23:29;3.85;;;2.10;;
8478;SDS011;4276;49.354;6.804;2024-02-23T05:25:55;7.85;;;4.85;;
8478;SDS011;4276;49.354;6.804;2024-02-23T05:28:22;9.40;;;5.75;;
8478;SDS011;4276;49.354;6.804;2024-02-23T05:30:48;6.95;;;4.25;;
8478;SDS011;4276;49.354;6.804;2024-02-23T05:33:15;5.97;;;3.00;;
8478;SDS011;4276;49.354;6.804;2024-02-23T05:35:42;3.75;;;2.63;;
8478;SDS011;4276;49.354;6.804;2024-02-23T05:38:08;3.83;;;2.47;;
8478;SDS011;4276;49.354;6.804;2024-02-23T05:40:35;3.35;;;2.20;;
8478;SDS011;4276;49.354;6.804;2024-02-23T05:43:02;5.68;;;2.75;;
8478;SDS011;4276;49.354;6.804;2024-02-23T05:45:29;4.75;;;2.50;;
8478;SDS011;4276;49.354;6.804;2024-02-23T05:47:55;2.72;;;2.13;;
8478;SDS011;4276;49.354;6.804;2024-02-23T05:50:22;3.03;;;2.00;;
8478;SDS011;4276;49.354;6.804;2024-02-23T05:52:49;4.28;;;2.30;;
8478;SDS011;4276;49.354;6.804;2024-02-23T05:55:16;5.15;;;2.25;;
8478;SDS011;4276;49.354;6.804;2024-02-23T05:57:42;6.65;;;2.13;;
8478;SDS011;4276;49.354;6.804;2024-02-23T06:00:09;3.85;;;2.05;;
8478;SDS011;4276;49.354;6.804;2024-02-23T06:02:38;3.78;;;2.40;;
8478;SDS011;4276;49.354;6.804;2024-02-23T06:05:05;4.10;;;1.92;;
8478;SDS011;4276;49.354;6.804;2024-02-23T06:07:34;3.22;;;2.50;;
8478;SDS011;4276;49.354;6.804;2024-02-23T06:10:01;6.45;;;2.28;;
8478;SDS011;4276;49.354;6.804;2024-02-23T06:12:28;3.05;;;2.40;;
8478;SDS011;4276;49.354;6.804;2024-02-23T06:14:54;3.67;;;2.15;;
8478;SDS011;4276;49.354;6.804;2024-02-23T06:17:23;2.67;;;1.92;;
8478;SDS011;4276;49.354;6.804;2024-02-23T06:19:50;3.35;;;2.08;;
8478;SDS011;4276;49.354;6.804;2024-02-23T06:22:18;5.03;;;2.67;;
8478;SDS011;4276;49.354;6.804;2024-02-23T06:24:47;4.15;;;2.72;;
8478;SDS011;4276;49.354;6.804;2024-02-23T06:27:15;5.00;;;3.53;;
8478;SDS011;4276;49.354;6.804;2024-02-23T06:29:42;6.45;;;3.30;;
8478;SDS011;4276;49.354;6.804;2024-02-23T06:32:08;5.03;;;3.35;;
8478;SDS011;4276;49.354;6.804;2024-02-23T06:34:35;7.70;;;3.50;;
8478;SDS011;4276;49.354;6.804;2024-02-23T06:37:02;7.00;;;3.30;;
8478;SDS011;4276;49.354;6.804;2024-02-23T06:39:29;7.28;;;4.07;;
8478;SDS011;4276;49.354;6.804;2024-02-23T06:41:56;10.73;;;7.55;;
8478;SDS011;4276;49.354;6.804;2024-02-23T06:44:23;6.97;;;4.85;;
8478;SDS011;4276;49.354;6.804;2024-02-23T06:46:50;4.07;;;2.67;;
8478;SDS011;4276;49.354;6.804;2024-02-23T06:49:17;5.80;;;3.50;;
8478;SDS011;4276;49.354;6.804;2024-02-23T06:51:43;7.95;;;3.78;;
8478;SDS011;4276;49.354;6.804;2024-02-23T06:54:10;3.85;;;2.70;;
8478;SDS011;4276;49.354;6.804;2024-02-23T06:56:36;5.47;;;2.60;;
8478;SDS011;4276;49.354;6.804;2024-02-23T06:59:03;5.20;;;2.42;;
8478;SDS011;4276;49.354;6.804;2024-02-23T07:01:30;7.25;;;2.53;;
8478;SDS011;4276;49.354;6.804;2024-02-23T07:03:57;6.35;;;2.65;;
8478;SDS011;4276;49.354;6.804;2024-02-23T07:06:24;4.97;;;2.78;;
8478;SDS011;4276;49.354;6.804;2024-02-23T07:08:51;2.53;;;2.15;;
8478;SDS011;4276;49.354;6.804;2024-02-23T07:11:18;3.72;;;2.15;;
8478;SDS011;4276;49.354;6.804;2024-02-23T07:13:45;4.60;;;2.20;;
8478;SDS011;4276;49.354;6.804;2024-02-23T07:16:11;5.22;;;2.53;;
8478;SDS011;4276;49.354;6.804;2024-02-23T07:18:40;3.35;;;2.30;;
8478;SDS011;4276;49.354;6.804;2024-02-23T07:21:06;4.38;;;2.88;;
8478;SDS011;4276;49.354;6.804;2024-02-23T07:23:33;4.22;;;2.58;;
8478;SDS011;4276;49.354;6.804;2024-02-23T07:25:59;7.43;;;3.10;;
8478;SDS011;4276;49.354;6.804;2024-02-23T07:28:26;5.22;;;2.70;;
8478;SDS011;4276;49.354;6.804;2024-02-23T07:30:52;4.32;;;2.55;;
8478;SDS011;4276;49.354;6.804;2024-02-23T07:33:22;5.20;;;2.53;;
8478;SDS011;4276;49.354;6.804;2024-02-23T07:35:48;5.40;;;2.88;;
8478;SDS011;4276;49.354;6.804;2024-02-23T07:38:15;4.93;;;2.50;;
8478;SDS011;4276;49.354;6.804;2024-02-23T07:40:44;7.30;;;2.90;;
8478;SDS011;4276;49.354;6.804;2024-02-23T07:43:10;4.55;;;2.50;;
8478;SDS011;4276;49.354;6.804;2024-02-23T07:45:37;2.95;;;2.28;;
8478;SDS011;4276;49.354;6.804;2024-02-23T07:48:04;5.65;;;2.97;;
8478;SDS011;4276;49.354;6.804;2024-02-23T07:50:31;3.88;;;2.38;;
8478;SDS011;4276;49.354;6.804;2024-02-23T07:52:57;3.88;;;2.20;;
8478;SDS011;4276;49.354;6.804;2024-02-23T07:55:24;3.08;;;2.72;;
8478;SDS011;4276;49.354;6.804;2024-02-23T07:57:50;9.82;;;3.58;;
8478;SDS011;4276;49.354;6.804;2024-02-23T08:00:17;5.57;;;2.53;;
8478;SDS011;4276;49.354;6.804;2024-02-23T08:02:44;6.70;;;2.72;;
8478;SDS011;4276;49.354;6.804;2024-02-23T08:05:10;3.15;;;2.20;;
8478;SDS011;4276;49.354;6.804;2024-02-23T08:07:37;6.28;;;2.97;;
8478;SDS011;4276;49.354;6.804;2024-02-23T08:10:04;6.00;;;2.83;;
8478;SDS011;4276;49.354;6.804;2024-02-23T08:12:31;4.55;;;2.30;;
8478;SDS011;4276;49.354;6.804;2024-02-23T08:14:58;4.32;;;2.60;;
8478;SDS011;4276;49.354;6.804;2024-02-23T08:17:24;7.82;;;3.35;;
8478;SDS011;4276;49.354;6.804;2024-02-23T08:19:51;5.57;;;2.83;;
8478;SDS011;4276;49.354;6.804;2024-02-23T08:22:18;4.63;;;2.47;;
8478;SDS011;4276;49.354;6.804;2024-02-23T08:24:45;5.35;;;2.72;;
8478;SDS011;4276;49.354;6.804;2024-02-23T08:27:11;4.30;;;2.70;;
8478;SDS011;4276;49.354;6.804;2024-02-23T08:29:38;5.47;;;2.22;;
8478;SDS011;4276;49.354;6.804;2024-02-23T08:32:05;5.68;;;2.47;;
8478;SDS011;4276;49.354;6.804;2024-02-23T08:34:32;6.60;;;2.30;;
8478;SDS011;4276;49.354;6.804;2024-02-23T08:37:00;3.85;;;2.10;;
8478;SDS011;4276;49.354;6.804;2024-02-23T08:39:27;4.80;;;2.55;;
8478;SDS011;4276;49.354;6.804;2024-02-23T08:41:54;4.22;;;2.30;;
8478;SDS011;4276;49.354;6.804;2024-02-23T08:44:21;6.85;;;2.13;;
8478;SDS011;4276;49.354;6.804;2024-02-23T08:46:48;6.65;;;2.38;;
8478;SDS011;4276;49.354;6.804;2024-02-23T08:49:14;4.85;;;2.22;;
8478;SDS011;4276;49.354;6.804;2024-02-23T08:51:41;4.40;;;2.00;;
8478;SDS011;4276;49.354;6.804;2024-02-23T08:54:07;5.30;;;2.30;;
8478;SDS011;4276;49.354;6.804;2024-02-23T08:56:37;5.78;;;2.63;;
8478;SDS011;4276;49.354;6.804;2024-02-23T08:59:05;4.90;;;2.20;;
8478;SDS011;4276;49.354;6.804;2024-02-23T09:01:32;4.55;;;2.10;;
8478;SDS011;4276;49.354;6.804;2024-02-23T09:03:58;5.22;;;2.30;;
8478;SDS011;4276;49.354;6.804;2024-02-23T09:06:25;4.80;;;2.05;;
8478;SDS011;4276;49.354;6.804;2024-02-23T09:08:52;4.32;;;2.30;;
8478;SDS011;4276;49.354;6.804;2024-02-23T09:11:18;5.40;;;2.33;;
8478;SDS011;4276;49.354;6.804;2024-02-23T09:13:45;6.30;;;2.22;;
8478;SDS011;4276;49.354;6.804;2024-02-23T09:16:11;5.95;;;2.58;;
8478;SDS011;4276;49.354;6.804;2024-02-23T09:18:38;5.95;;;3.30;;
8478;SDS011;4276;49.354;6.804;2024-02-23T09:21:05;7.03;;;2.55;;
8478;SDS011;4276;49.354;6.804;2024-02-23T09:23:31;13.77;;;2.60;;
8478;SDS011;4276;49.354;6.804;2024-02-23T09:25:59;3.60;;;2.10;;
8478;SDS011;4276;49.354;6.804;2024-02-23T09:28:25;4.60;;;2.00;;
8478;SDS011;4276;49.354;6.804;2024-02-23T09:30:52;5.90;;;2.30;;
8478;SDS011;4276;49.354;6.804;2024-02-23T09:33:22;5.32;;;2.30;;
8478;SDS011;4276;49.354;6.804;2024-02-23T09:35:49;7.20;;;2.63;;
8478;SDS011;4276;49.354;6.804;2024-02-23T09:38:15;2.70;;;2.35;;
8478;SDS011;4276;49.354;6.804;2024-02-23T09:40:42;5.75;;;2.38;;
8478;SDS011;4276;49.354;6.804;2024-02-23T09:43:09;5.78;;;1.92;;
8478;SDS011;4276;49.354;6.804;2024-02-23T09:45:37;5.72;;;2.50;;
8478;SDS011;4276;49.354;6.804;2024-02-23T09:48:04;4.47;;;2.17;;
8478;SDS011;4276;49.354;6.804;2024-02-23T09:50:31;4.57;;;2.40;;
8478;SDS011;4276;49.354;6.804;2024-02-23T09:52:58;4.70;;;2.33;;
8478;SDS011;4276;49.354;6.804;2024-02-23T09:55:25;8.27;;;2.35;;
8478;SDS011;4276;49.354;6.804;2024-02-23T09:57:52;3.15;;;2.10;;
8478;SDS011;4276;49.354;6.804;2024-02-23T10:00:23;6.80;;;2.50;;
8478;SDS011;4276;49.354;6.804;2024-02-23T10:02:49;3.03;;;2.20;;
8478;SDS011;4276;49.354;6.804;2024-02-23T10:05:17;5.13;;;2.45;;
8478;SDS011;4276;49.354;6.804;2024-02-23T10:07:43;4.70;;;2.35;;
8478;SDS011;4276;49.354;6.804;2024-02-23T10:10:10;5.70;;;2.20;;
8478;SDS011;4276;49.354;6.804;2024-02-23T10:12:37;5.55;;;2.50;;
8478;SDS011;4276;49.354;6.804;2024-02-23T10:15:04;6.45;;;2.60;;
8478;SDS011;4276;49.354;6.804;2024-02-23T10:17:31;3.92;;;1.90;;
8478;SDS011;4276;49.354;6.804;2024-02-23T10:20:02;7.55;;;2.70;;
8478;SDS011;4276;49.354;6.804;2024-02-23T10:22:31;2.53;;;2.08;;
8478;SDS011;4276;49.354;6.804;2024-02-23T10:24:57;6.82;;;2.00;;
8478;SDS011;4276;49.354;6.804;2024-02-23T10:27:24;7.18;;;2.30;;
8478;SDS011;4276;49.354;6.804;2024-02-23T10:29:50;4.70;;;2.05;;
8478;SDS011;4276;49.354;6.804;2024-02-23T10:32:18;5.28;;;2.30;;
8478;SDS011;4276;49.354;6.804;2024-02-23T10:34:46;5.22;;;2.30;;
8478;SDS011;4276;49.354;6.804;2024-02-23T10:37:14;6.13;;;2.30;;
8478;SDS011;4276;49.354;6.804;2024-02-23T10:39:40;3.90;;;1.60;;
8478;SDS011;4276;49.354;6.804;2024-02-23T10:42:08;5.07;;;1.85;;
8478;SDS011;4276;49.354;6.804;2024-02-23T10:44:35;4.40;;;2.13;;
8478;SDS011;4276;49.354;6.804;2024-02-23T10:47:04;4.25;;;2.00;;
8478;SDS011;4276;49.354;6.804;2024-02-23T10:49:30;2.65;;;1.63;;
8478;SDS011;4276;49.354;6.804;2024-02-23T10:51:57;4.18;;;2.10;;
8478;SDS011;4276;49.354;6.804;2024-02-23T10:54:24;6.07;;;2.10;;
8478;SDS011;4276;49.354;6.804;2024-02-23T10:56:52;4.90;;;2.08;;
8478;SDS011;4276;49.354;6.804;2024-02-23T10:59:19;4.40;;;1.90;;
8478;SDS011;4276;49.354;6.804;2024-02-23T11:01:49;3.92;;;1.75;;
8478;SDS011;4276;49.354;6.804;2024-02-23T11:04:17;4.47;;;1.70;;
8478;SDS011;4276;49.354;6.804;2024-02-23T11:06:53;2.85;;;1.90;;
8478;SDS011;4276;49.354;6.804;2024-02-23T11:09:21;3.42;;;2.20;;
8478;SDS011;4276;49.354;6.804;2024-02-23T11:11:52;3.50;;;2.10;;
8478;SDS011;4276;49.354;6.804;2024-02-23T11:14:29;4.28;;;2.05;;
8478;SDS011;4276;49.354;6.804;2024-02-23T11:16:59;2.55;;;1.90;;
8478;SDS011;4276;49.354;6.804;2024-02-23T11:19:36;2.33;;;1.60;;
8478;SDS011;4276;49.354;6.804;2024-02-23T11:22:09;6.43;;;1.65;;
8478;SDS011;4276;49.354;6.804;2024-02-23T11:24:48;5.32;;;2.05;;
8478;SDS011;4276;49.354;6.804;2024-02-23T11:27:19;3.35;;;1.70;;
8478;SDS011;4276;49.354;6.804;2024-02-23T11:29:46;3.42;;;1.65;;
8478;SDS011;4276;49.354;6.804;2024-02-23T11:32:15;7.88;;;4.72;;
8478;SDS011;4276;49.354;6.804;2024-02-23T11:34:55;4.65;;;2.20;;
8478;SDS011;4276;49.354;6.804;2024-02-23T11:37:28;2.85;;;2.00;;
8478;SDS011;4276;49.354;6.804;2024-02-23T11:39:55;3.60;;;2.20;;
8478;SDS011;4276;49.354;6.804;2024-02-23T11:42:25;3.00;;;1.67;;
8478;SDS011;4276;49.354;6.804;2024-02-23T11:44:53;3.65;;;1.80;;
8478;SDS011;4276;49.354;6.804;2024-02-23T11:47:24;3.30;;;1.63;;
8478;SDS011;4276;49.354;6.804;2024-02-23T11:49:51;3.33;;;1.80;;
8478;SDS011;4276;49.354;6.804;2024-02-23T11:52:18;2.33;;;1.60;;
8478;SDS011;4276;49.354;6.804;2024-02-23T11:54:45;6.20;;;1.70;;
8478;SDS011;4276;49.354;6.804;2024-02-23T11:57:11;4.88;;;2.00;;
8478;SDS011;4276;49.354;6.804;2024-02-23T11:59:39;3.53;;;1.80;;
8478;SDS011;4276;49.354;6.804;2024-02-23T12:02:06;2.85;;;1.98;;
8478;SDS011;4276;49.354;6.804;2024-02-23T12:04:33;3.70;;;1.77;;
8478;SDS011;4276;49.354;6.804;2024-02-23T12:07:00;2.75;;;1.60;;
8478;SDS011;4276;49.354;6.804;2024-02-23T12:09:27;2.92;;;1.65;;
8478;SDS011;4276;49.354;6.804;2024-02-23T12:11:53;2.70;;;1.65;;
8478;SDS011;4276;49.354;6.804;2024-02-23T12:14:21;7.00;;;4.65;;
8478;SDS011;4276;49.354;6.804;2024-02-23T12:16:47;3.65;;;2.47;;
8478;SDS011;4276;49.354;6.804;2024-02-23T12:19:14;5.43;;;2.60;;
8478;SDS011;4276;49.354;6.804;2024-02-23T12:21:41;3.83;;;1.92;;
8478;SDS011;4276;49.354;6.804;2024-02-23T12:24:12;5.72;;;2.10;;
8478;SDS011;4276;49.354;6.804;2024-02-23T12:26:38;4.45;;;1.83;;
8478;SDS011;4276;49.354;6.804;2024-02-23T12:29:05;5.78;;;2.35;;
8478;SDS011;4276;49.354;6.804;2024-02-23T12:31:32;3.25;;;1.80;;
8478;SDS011;4276;49.354;6.804;2024-02-23T12:33:59;5.13;;;2.67;;
8478;SDS011;4276;49.354;6.804;2024-02-23T12:36:25;2.25;;;1.70;;
8478;SDS011;4276;49.354;6.804;2024-02-23T12:38:52;3.17;;;1.80;;
8478;SDS011;4276;49.354;6.804;2024-02-23T12:41:18;3.28;;;1.70;;
8478;SDS011;4276;49.354;6.804;2024-02-23T12:43:45;2.88;;;1.75;;
8478;SDS011;4276;49.354;6.804;2024-02-23T12:46:14;3.55;;;1.45;;
8478;SDS011;4276;49.354;6.804;2024-02-23T12:48:40;3.10;;;1.67;;
8478;SDS011;4276;49.354;6.804;2024-02-23T12:51:09;3.13;;;1.83;;
8478;SDS011;4276;49.354;6.804;2024-02-23T12:53:36;3.25;;;1.75;;
8478;SDS011;4276;49.354;6.804;2024-02-23T12:56:05;4.10;;;2.05;;
8478;SDS011;4276;49.354;6.804;2024-02-23T12:58:36;3.08;;;1.95;;
8478;SDS011;4276;49.354;6.804;2024-02-23T13:01:03;4.97;;;2.05;;
8478;SDS011;4276;49.354;6.804;2024-02-23T13:03:30;3.42;;;1.95;;
8478;SDS011;4276;49.354;6.804;2024-02-23T13:05:57;4.90;;;1.95;;
8478;SDS011;4276;49.354;6.804;2024-02-23T13:08:24;2.45;;;1.48;;
8478;SDS011;4276;49.354;6.804;2024-02-23T13:10:51;3.53;;;1.45;;
8478;SDS011;4276;49.354;6.804;2024-02-23T13:13:19;4.72;;;2.08;;
8478;SDS011;4276;49.354;6.804;2024-02-23T13:15:46;2.90;;;1.40;;
8478;SDS011;4276;49.354;6.804;2024-02-23T13:18:13;3.88;;;1.85;;
8478;SDS011;4276;49.354;6.804;2024-02-23T13:20:40;3.35;;;2.05;;
8478;SDS011;4276;49.354;6.804;2024-02-23T13:23:10;3.63;;;2.00;;
8478;SDS011;4276;49.354;6.804;2024-02-23T13:25:38;4.13;;;2.28;;
8478;SDS011;4276;49.354;6.804;2024-02-23T13:28:05;2.58;;;2.00;;
8478;SDS011;4276;49.354;6.804;2024-02-23T13:30:33;2.90;;;1.88;;
8478;SDS011;4276;49.354;6.804;2024-02-23T13:33:00;3.28;;;2.00;;
8478;SDS011;4276;49.354;6.804;2024-02-23T13:35:26;4.63;;;2.00;;
8478;SDS011;4276;49.354;6.804;2024-02-23T13:37:53;3.42;;;1.75;;
8478;SDS011;4276;49.354;6.804;2024-02-23T13:40:20;4.57;;;2.10;;
8478;SDS011;4276;49.354;6.804;2024-02-23T13:42:47;3.67;;;2.08;;
8478;SDS011;4276;49.354;6.804;2024-02-23T13:45:16;5.53;;;1.98;;
8478;SDS011;4276;49.354;6.804;2024-02-23T13:47:43;3.20;;;1.73;;
8478;SDS011;4276;49.354;6.804;2024-02-23T13:50:22;4.30;;;2.03;;
8478;SDS011;4276;49.354;6.804;2024-02-23T13:52:49;4.20;;;1.92;;
8478;SDS011;4276;49.354;6.804;2024-02-23T13:55:15;2.78;;;1.70;;
8478;SDS011;4276;49.354;6.804;2024-02-23T13:57:42;2.65;;;1.60;;
8478;SDS011;4276;49.354;6.804;2024-02-23T14:00:08;3.30;;;1.50;;
8478;SDS011;4276;49.354;6.804;2024-02-23T14:02:39;3.17;;;1.40;;
8478;SDS011;4276;49.354;6.804;2024-02-23T14:05:08;3.85;;;2.03;;
8478;SDS011;4276;49.354;6.804;2024-02-23T14:07:35;3.20;;;1.35;;
8478;SDS011;4276;49.354;6.804;2024-02-23T14:10:02;2.78;;;1.58;;
8478;SDS011;4276;49.354;6.804;2024-02-23T14:12:29;2.67;;;1.48;;
8478;SDS011;4276;49.354;6.804;2024-02-23T14:14:56;2.70;;;1.40;;
8478;SDS011;4276;49.354;6.804;2024-02-23T14:17:23;2.03;;;1.42;;
8478;SDS011;4276;49.354;6.804;2024-02-23T14:19:50;2.83;;;1.35;;
8478;SDS011;4276;49.354;6.804;2024-02-23T14:22:17;2.85;;;1.75;;
8478;SDS011;4276;49.354;6.804;2024-02-23T14:24:44;2.22;;;1.52;;
8478;SDS011;4276;49.354;6.804;2024-02-23T14:27:10;2.20;;;1.23;;
8478;SDS011;4276;49.354;6.804;2024-02-23T14:29:37;2.33;;;1.40;;
8478;SDS011;4276;49.354;6.804;2024-02-23T14:32:03;2.00;;;1.17;;
8478;SDS011;4276;49.354;6.804;2024-02-23T14:34:30;1.25;;;1.17;;
8478;SDS011;4276;49.354;6.804;2024-02-23T14:36:59;3.65;;;2.50;;
8478;SDS011;4276;49.354;6.804;2024-02-23T14:39:26;2.90;;;1.88;;
8478;SDS011;4276;49.354;6.804;2024-02-23T14:41:52;2.05;;;1.83;;
8478;SDS011;4276;49.354;6.804;2024-02-23T14:44:19;1.70;;;1.23;;
8478;SDS011;4276;49.354;6.804;2024-02-23T14:46:46;2.17;;;1.30;;
8478;SDS011;4276;49.354;6.804;2024-02-23T14:49:12;1.73;;;1.63;;
8478;SDS011;4276;49.354;6.804;2024-02-23T14:51:39;1.88;;;1.60;;
8478;SDS011;4276;49.354;6.804;2024-02-23T14:54:09;1.80;;;1.40;;
8478;SDS011;4276;49.354;6.804;2024-02-23T14:56:35;2.65;;;1.60;;
8478;SDS011;4276;49.354;6.804;2024-02-23T14:59:02;1.50;;;1.40;;
8478;SDS011;4276;49.354;6.804;2024-02-23T15:01:31;1.80;;;1.50;;
8478;SDS011;4276;49.354;6.804;2024-02-23T15:03:58;1.88;;;1.40;;
8478;SDS011;4276;49.354;6.804;2024-02-23T15:06:24;1.40;;;1.30;;
8478;SDS011;4276;49.354;6.804;2024-02-23T15:08:51;2.08;;;1.27;;
8478;SDS011;4276;49.354;6.804;2024-02-23T15:11:18;0.85;;;0.85;;
8478;SDS011;4276;49.354;6.804;2024-02-23T15:13:45;1.00;;;1.00;;
8478;SDS011;4276;49.354;6.804;2024-02-23T15:16:11;1.30;;;1.30;;